sensor_id;sensor_type;location;lat;lon;timestamp;temperature;humidity
11532;DHT22;5822;51.000;5.874;2022-09-30T00:02:24;11.20;99.90
11532;DHT22;5822;51.000;5.874;2022-09-30T00:04:49;11.40;99.90
11532;DHT22;5822;51.000;5.874;2022-09-30T00:07:15;11.30;99.90
11532;DHT22;5822;51.000;5.874;2022-09-30T00:09:40;11.20;99.90
11532;DHT22;5822;51.000;5.874;2022-09-30T00:12:06;11.20;99.90
11532;DHT22;5822;51.000;5.874;2022-09-30T00:14:32;11.20;99.90
11532;DHT22;5822;51.000;5.874;2022-09-30T00:16:57;11.40;99.90
11532;DHT22;5822;51.000;5.874;2022-09-30T00:19:24;11.40;99.90
11532;DHT22;5822;51.000;5.874;2022-09-30T00:21:49;11.30;99.90
11532;DHT22;5822;51.000;5.874;2022-09-30T00:24:15;11.30;99.90
11532;DHT22;5822;51.000;5.874;2022-09-30T00:26:41;11.50;99.90
11532;DHT22;5822;51.000;5.874;2022-09-30T00:29:06;11.50;99.90
11532;DHT22;5822;51.000;5.874;2022-09-30T00:31:34;11.30;99.90
11532;DHT22;5822;51.000;5.874;2022-09-30T00:34:00;10.90;99.90
11532;DHT22;5822;51.000;5.874;2022-09-30T00:36:40;10.90;99.90
11532;DHT22;5822;51.000;5.874;2022-09-30T00:39:09;10.60;99.90
11532;DHT22;5822;51.000;5.874;2022-09-30T00:41:35;10.70;99.90
11532;DHT22;5822;51.000;5.874;2022-09-30T00:44:37;10.80;99.90
11532;DHT22;5822;51.000;5.874;2022-09-30T00:46:47;10.90;99.90
11532;DHT22;5822;51.000;5.874;2022-09-30T00:49:20;11.10;99.90
11532;DHT22;5822;51.000;5.874;2022-09-30T00:51:53;10.60;99.90
11532;DHT22;5822;51.000;5.874;2022-09-30T00:54:27;10.20;99.90
11532;DHT22;5822;51.000;5.874;2022-09-30T00:56:56;10.10;99.90
11532;DHT22;5822;51.000;5.874;2022-09-30T00:59:31;10.20;99.90
11532;DHT22;5822;51.000;5.874;2022-09-30T01:01:58;10.40;99.90
11532;DHT22;5822;51.000;5.874;2022-09-30T01:04:27;10.60;99.90
11532;DHT22;5822;51.000;5.874;2022-09-30T01:06:53;10.90;99.90
11532;DHT22;5822;51.000;5.874;2022-09-30T01:09:19;10.70;99.90
11532;DHT22;5822;51.000;5.874;2022-09-30T01:11:46;10.90;99.90
11532;DHT22;5822;51.000;5.874;2022-09-30T01:14:17;10.80;99.90
11532;DHT22;5822;51.000;5.874;2022-09-30T01:16:49;10.90;99.90
11532;DHT22;5822;51.000;5.874;2022-09-30T01:31:00;11.60;99.90
11532;DHT22;5822;51.000;5.874;2022-09-30T01:41:25;11.20;99.90
11532;DHT22;5822;51.000;5.874;2022-09-30T01:44:14;11.10;99.90
11532;DHT22;5822;51.000;5.874;2022-09-30T01:46:46;11.30;99.90
11532;DHT22;5822;51.000;5.874;2022-09-30T01:57:01;11.70;99.90
11532;DHT22;5822;51.000;5.874;2022-09-30T01:59:34;11.50;99.90
11532;DHT22;5822;51.000;5.874;2022-09-30T02:02:08;11.50;99.90
11532;DHT22;5822;51.000;5.874;2022-09-30T02:04:41;11.40;99.90
11532;DHT22;5822;51.000;5.874;2022-09-30T02:07:27;11.20;99.90
11532;DHT22;5822;51.000;5.874;2022-09-30T02:10:09;11.30;99.90
11532;DHT22;5822;51.000;5.874;2022-09-30T02:12:40;11.30;99.90
11532;DHT22;5822;51.000;5.874;2022-09-30T02:15:11;10.90;99.90
11532;DHT22;5822;51.000;5.874;2022-09-30T02:17:51;11.00;99.90
11532;DHT22;5822;51.000;5.874;2022-09-30T02:20:21;11.20;99.90
11532;DHT22;5822;51.000;5.874;2022-09-30T02:22:51;10.90;99.90
11532;DHT22;5822;51.000;5.874;2022-09-30T02:25:22;10.90;99.90
11532;DHT22;5822;51.000;5.874;2022-09-30T02:27:54;10.90;99.90
11532;DHT22;5822;51.000;5.874;2022-09-30T02:30:22;11.00;99.90
11532;DHT22;5822;51.000;5.874;2022-09-30T02:32:52;10.90;99.90
11532;DHT22;5822;51.000;5.874;2022-09-30T02:35:34;11.20;99.90
11532;DHT22;5822;51.000;5.874;2022-09-30T02:38:15;11.20;99.90
11532;DHT22;5822;51.000;5.874;2022-09-30T02:41:00;11.00;99.90
11532;DHT22;5822;51.000;5.874;2022-09-30T02:43:29;11.00;99.90
11532;DHT22;5822;51.000;5.874;2022-09-30T02:46:17;11.00;99.90
11532;DHT22;5822;51.000;5.874;2022-09-30T02:51:28;11.00;99.90
11532;DHT22;5822;51.000;5.874;2022-09-30T02:54:08;11.00;99.90
11532;DHT22;5822;51.000;5.874;2022-09-30T02:59:15;10.90;99.90
11532;DHT22;5822;51.000;5.874;2022-09-30T03:01:41;11.10;99.90
11532;DHT22;5822;51.000;5.874;2022-09-30T03:04:10;11.00;99.90
11532;DHT22;5822;51.000;5.874;2022-09-30T03:06:37;11.30;99.90
11532;DHT22;5822;51.000;5.874;2022-09-30T03:09:04;11.20;99.90
11532;DHT22;5822;51.000;5.874;2022-09-30T03:11:30;11.00;99.90
11532;DHT22;5822;51.000;5.874;2022-09-30T03:27:43;11.10;99.90
11532;DHT22;5822;51.000;5.874;2022-09-30T03:30:18;11.10;99.90
11532;DHT22;5822;51.000;5.874;2022-09-30T03:36:05;10.80;99.90
11532;DHT22;5822;51.000;5.874;2022-09-30T03:44:01;11.00;99.90
11532;DHT22;5822;51.000;5.874;2022-09-30T03:46:42;11.10;99.90
11532;DHT22;5822;51.000;5.874;2022-09-30T03:49:12;11.30;99.90
11532;DHT22;5822;51.000;5.874;2022-09-30T03:51:39;10.90;99.90
11532;DHT22;5822;51.000;5.874;2022-09-30T03:54:09;11.00;99.90
11532;DHT22;5822;51.000;5.874;2022-09-30T03:56:37;10.80;99.90
11532;DHT22;5822;51.000;5.874;2022-09-30T03:59:12;10.90;99.90
11532;DHT22;5822;51.000;5.874;2022-09-30T04:01:41;10.70;99.90
11532;DHT22;5822;51.000;5.874;2022-09-30T04:04:07;10.90;99.90
11532;DHT22;5822;51.000;5.874;2022-09-30T04:06:33;10.80;99.90
11532;DHT22;5822;51.000;5.874;2022-09-30T04:08:59;10.90;99.90
11532;DHT22;5822;51.000;5.874;2022-09-30T04:11:24;10.80;99.90
11532;DHT22;5822;51.000;5.874;2022-09-30T04:13:50;10.80;99.90
11532;DHT22;5822;51.000;5.874;2022-09-30T04:16:15;10.90;99.90
11532;DHT22;5822;51.000;5.874;2022-09-30T04:18:41;10.70;99.90
11532;DHT22;5822;51.000;5.874;2022-09-30T04:21:08;10.70;99.90
11532;DHT22;5822;51.000;5.874;2022-09-30T04:23:37;10.40;99.90
11532;DHT22;5822;51.000;5.874;2022-09-30T04:26:05;10.60;99.90
11532;DHT22;5822;51.000;5.874;2022-09-30T04:28:31;10.40;99.90
11532;DHT22;5822;51.000;5.874;2022-09-30T04:31:00;10.20;99.90
11532;DHT22;5822;51.000;5.874;2022-09-30T04:33:26;10.00;99.90
11532;DHT22;5822;51.000;5.874;2022-09-30T04:35:56;10.10;99.90
11532;DHT22;5822;51.000;5.874;2022-09-30T04:38:22;10.50;99.90
11532;DHT22;5822;51.000;5.874;2022-09-30T04:40:52;10.40;99.90
11532;DHT22;5822;51.000;5.874;2022-09-30T04:43:21;10.50;99.90
11532;DHT22;5822;51.000;5.874;2022-09-30T04:45:48;10.50;99.90
11532;DHT22;5822;51.000;5.874;2022-09-30T04:48:15;10.70;99.90
11532;DHT22;5822;51.000;5.874;2022-09-30T04:50:41;10.50;99.90
11532;DHT22;5822;51.000;5.874;2022-09-30T04:53:08;10.60;99.90
11532;DHT22;5822;51.000;5.874;2022-09-30T04:55:34;10.60;99.90
11532;DHT22;5822;51.000;5.874;2022-09-30T04:58:00;10.80;99.90
11532;DHT22;5822;51.000;5.874;2022-09-30T05:00:27;11.00;99.90
11532;DHT22;5822;51.000;5.874;2022-09-30T05:02:52;11.00;99.90
11532;DHT22;5822;51.000;5.874;2022-09-30T05:05:18;11.00;99.90
11532;DHT22;5822;51.000;5.874;2022-09-30T05:07:44;11.20;99.90
11532;DHT22;5822;51.000;5.874;2022-09-30T05:10:10;11.00;99.90
11532;DHT22;5822;51.000;5.874;2022-09-30T05:12:39;10.80;99.90
11532;DHT22;5822;51.000;5.874;2022-09-30T05:15:08;10.60;99.90
11532;DHT22;5822;51.000;5.874;2022-09-30T05:17:34;10.70;99.90
11532;DHT22;5822;51.000;5.874;2022-09-30T05:20:01;10.60;99.90
11532;DHT22;5822;51.000;5.874;2022-09-30T05:22:27;10.50;99.90
11532;DHT22;5822;51.000;5.874;2022-09-30T05:24:53;10.70;99.90
11532;DHT22;5822;51.000;5.874;2022-09-30T05:27:21;10.50;99.90
11532;DHT22;5822;51.000;5.874;2022-09-30T05:29:47;10.50;99.90
11532;DHT22;5822;51.000;5.874;2022-09-30T05:32:12;10.50;99.90
11532;DHT22;5822;51.000;5.874;2022-09-30T05:34:38;10.50;99.90
11532;DHT22;5822;51.000;5.874;2022-09-30T05:37:07;10.60;99.90
11532;DHT22;5822;51.000;5.874;2022-09-30T05:39:34;10.50;99.90
11532;DHT22;5822;51.000;5.874;2022-09-30T05:41:59;10.50;99.90
11532;DHT22;5822;51.000;5.874;2022-09-30T05:44:25;10.60;99.90
11532;DHT22;5822;51.000;5.874;2022-09-30T05:46:51;10.30;99.90
11532;DHT22;5822;51.000;5.874;2022-09-30T05:49:16;10.60;99.90
11532;DHT22;5822;51.000;5.874;2022-09-30T05:51:42;10.90;99.90
11532;DHT22;5822;51.000;5.874;2022-09-30T05:54:11;10.70;99.90
11532;DHT22;5822;51.000;5.874;2022-09-30T05:56:37;10.70;99.90
11532;DHT22;5822;51.000;5.874;2022-09-30T05:59:04;10.80;99.90
11532;DHT22;5822;51.000;5.874;2022-09-30T06:01:30;11.00;99.90
11532;DHT22;5822;51.000;5.874;2022-09-30T06:03:55;11.10;99.90
11532;DHT22;5822;51.000;5.874;2022-09-30T06:06:21;10.80;99.90
11532;DHT22;5822;51.000;5.874;2022-09-30T06:08:47;10.60;99.90
11532;DHT22;5822;51.000;5.874;2022-09-30T06:11:15;10.60;99.90
11532;DHT22;5822;51.000;5.874;2022-09-30T06:13:41;10.60;99.90
11532;DHT22;5822;51.000;5.874;2022-09-30T06:16:08;10.60;99.90
11532;DHT22;5822;51.000;5.874;2022-09-30T06:18:35;10.40;99.90
11532;DHT22;5822;51.000;5.874;2022-09-30T06:21:02;10.70;99.90
11532;DHT22;5822;51.000;5.874;2022-09-30T06:23:29;10.90;99.90
11532;DHT22;5822;51.000;5.874;2022-09-30T06:25:55;10.70;99.90
11532;DHT22;5822;51.000;5.874;2022-09-30T06:28:21;10.60;99.90
11532;DHT22;5822;51.000;5.874;2022-09-30T06:30:47;10.60;99.90
11532;DHT22;5822;51.000;5.874;2022-09-30T06:33:14;10.70;99.90
11532;DHT22;5822;51.000;5.874;2022-09-30T06:35:40;10.60;99.90
11532;DHT22;5822;51.000;5.874;2022-09-30T06:38:10;10.60;99.90
11532;DHT22;5822;51.000;5.874;2022-09-30T06:40:36;10.80;99.90
11532;DHT22;5822;51.000;5.874;2022-09-30T06:43:03;10.70;99.90
11532;DHT22;5822;51.000;5.874;2022-09-30T06:45:29;10.90;99.90
11532;DHT22;5822;51.000;5.874;2022-09-30T06:47:58;10.80;99.90
11532;DHT22;5822;51.000;5.874;2022-09-30T06:50:24;10.80;99.90
11532;DHT22;5822;51.000;5.874;2022-09-30T06:52:50;11.00;99.90
11532;DHT22;5822;51.000;5.874;2022-09-30T06:55:17;11.10;99.90
11532;DHT22;5822;51.000;5.874;2022-09-30T06:57:44;11.10;99.90
11532;DHT22;5822;51.000;5.874;2022-09-30T07:00:11;11.00;99.90
11532;DHT22;5822;51.000;5.874;2022-09-30T07:02:36;10.90;99.90
11532;DHT22;5822;51.000;5.874;2022-09-30T07:05:04;10.80;99.90
11532;DHT22;5822;51.000;5.874;2022-09-30T07:07:30;10.70;99.90
11532;DHT22;5822;51.000;5.874;2022-09-30T07:09:59;10.80;99.90
11532;DHT22;5822;51.000;5.874;2022-09-30T07:12:24;10.80;99.90
11532;DHT22;5822;51.000;5.874;2022-09-30T07:14:51;11.20;99.90
11532;DHT22;5822;51.000;5.874;2022-09-30T07:17:17;11.10;99.90
11532;DHT22;5822;51.000;5.874;2022-09-30T07:19:42;11.00;99.90
11532;DHT22;5822;51.000;5.874;2022-09-30T07:22:08;11.20;99.90
11532;DHT22;5822;51.000;5.874;2022-09-30T07:24:52;11.20;99.90
11532;DHT22;5822;51.000;5.874;2022-09-30T07:27:18;11.00;99.90
11532;DHT22;5822;51.000;5.874;2022-09-30T07:29:43;10.90;99.90
11532;DHT22;5822;51.000;5.874;2022-09-30T07:32:10;10.80;99.90
11532;DHT22;5822;51.000;5.874;2022-09-30T07:34:37;11.20;99.90
11532;DHT22;5822;51.000;5.874;2022-09-30T07:37:03;11.40;99.90
11532;DHT22;5822;51.000;5.874;2022-09-30T07:39:29;11.50;99.90
11532;DHT22;5822;51.000;5.874;2022-09-30T07:41:55;11.70;99.90
11532;DHT22;5822;51.000;5.874;2022-09-30T07:44:21;11.40;99.90
11532;DHT22;5822;51.000;5.874;2022-09-30T07:46:50;11.60;99.90
11532;DHT22;5822;51.000;5.874;2022-09-30T07:49:17;11.70;99.90
11532;DHT22;5822;51.000;5.874;2022-09-30T07:51:53;11.60;99.90
11532;DHT22;5822;51.000;5.874;2022-09-30T07:54:22;11.50;99.90
11532;DHT22;5822;51.000;5.874;2022-09-30T07:56:49;11.40;99.90
11532;DHT22;5822;51.000;5.874;2022-09-30T07:59:15;11.60;99.90
11532;DHT22;5822;51.000;5.874;2022-09-30T08:01:41;11.80;99.90
11532;DHT22;5822;51.000;5.874;2022-09-30T08:04:08;11.90;99.90
11532;DHT22;5822;51.000;5.874;2022-09-30T08:06:40;11.80;99.90
11532;DHT22;5822;51.000;5.874;2022-09-30T08:09:07;11.80;99.90
11532;DHT22;5822;51.000;5.874;2022-09-30T08:11:34;11.80;99.90
11532;DHT22;5822;51.000;5.874;2022-09-30T08:14:00;11.90;99.90
11532;DHT22;5822;51.000;5.874;2022-09-30T08:16:26;12.10;99.90
11532;DHT22;5822;51.000;5.874;2022-09-30T08:19:01;12.20;99.90
11532;DHT22;5822;51.000;5.874;2022-09-30T08:21:28;12.10;99.90
11532;DHT22;5822;51.000;5.874;2022-09-30T08:23:55;11.90;99.90
11532;DHT22;5822;51.000;5.874;2022-09-30T08:26:21;11.90;99.90
11532;DHT22;5822;51.000;5.874;2022-09-30T08:28:47;12.00;99.90
11532;DHT22;5822;51.000;5.874;2022-09-30T08:31:20;12.20;99.90
11532;DHT22;5822;51.000;5.874;2022-09-30T08:33:47;12.20;99.90
11532;DHT22;5822;51.000;5.874;2022-09-30T08:36:18;12.20;99.90
11532;DHT22;5822;51.000;5.874;2022-09-30T08:38:44;12.10;99.90
11532;DHT22;5822;51.000;5.874;2022-09-30T08:44:06;12.30;99.90
11532;DHT22;5822;51.000;5.874;2022-09-30T08:46:48;12.40;99.90
11532;DHT22;5822;51.000;5.874;2022-09-30T08:51:55;12.40;99.90
11532;DHT22;5822;51.000;5.874;2022-09-30T08:54:25;12.40;99.90
11532;DHT22;5822;51.000;5.874;2022-09-30T08:56:54;12.50;99.90
11532;DHT22;5822;51.000;5.874;2022-09-30T08:59:26;12.50;99.90
11532;DHT22;5822;51.000;5.874;2022-09-30T09:02:20;12.70;99.90
11532;DHT22;5822;51.000;5.874;2022-09-30T09:04:48;12.90;99.90
11532;DHT22;5822;51.000;5.874;2022-09-30T09:07:39;13.00;99.90
11532;DHT22;5822;51.000;5.874;2022-09-30T09:18:57;12.90;99.90
11532;DHT22;5822;51.000;5.874;2022-09-30T09:21:40;12.90;99.90
11532;DHT22;5822;51.000;5.874;2022-09-30T09:24:17;13.00;99.90
11532;DHT22;5822;51.000;5.874;2022-09-30T09:26:44;13.10;99.90
11532;DHT22;5822;51.000;5.874;2022-09-30T09:29:48;13.00;99.90
11532;DHT22;5822;51.000;5.874;2022-09-30T09:32:17;13.10;99.90
11532;DHT22;5822;51.000;5.874;2022-09-30T09:34:44;13.00;99.90
11532;DHT22;5822;51.000;5.874;2022-09-30T09:37:21;13.00;99.90
11532;DHT22;5822;51.000;5.874;2022-09-30T09:40:24;13.00;99.90
11532;DHT22;5822;51.000;5.874;2022-09-30T09:43:05;13.10;99.90
11532;DHT22;5822;51.000;5.874;2022-09-30T09:45:46;13.10;99.90
11532;DHT22;5822;51.000;5.874;2022-09-30T09:48:12;13.10;99.90
11532;DHT22;5822;51.000;5.874;2022-09-30T09:51:00;13.20;99.90
11532;DHT22;5822;51.000;5.874;2022-09-30T09:53:47;13.30;99.90
11532;DHT22;5822;51.000;5.874;2022-09-30T09:56:18;13.30;99.90
11532;DHT22;5822;51.000;5.874;2022-09-30T09:59:22;13.40;99.90
11532;DHT22;5822;51.000;5.874;2022-09-30T10:01:50;13.40;99.90
11532;DHT22;5822;51.000;5.874;2022-09-30T10:04:25;13.40;99.90
11532;DHT22;5822;51.000;5.874;2022-09-30T10:07:21;13.40;99.90
11532;DHT22;5822;51.000;5.874;2022-09-30T10:09:46;13.50;99.90
11532;DHT22;5822;51.000;5.874;2022-09-30T10:17:32;13.40;99.90
11532;DHT22;5822;51.000;5.874;2022-09-30T10:20:03;13.50;99.90
11532;DHT22;5822;51.000;5.874;2022-09-30T10:22:32;13.50;99.90
11532;DHT22;5822;51.000;5.874;2022-09-30T10:27:47;13.60;99.90
11532;DHT22;5822;51.000;5.874;2022-09-30T10:33:01;13.80;99.90
11532;DHT22;5822;51.000;5.874;2022-09-30T10:35:29;13.80;99.90
11532;DHT22;5822;51.000;5.874;2022-09-30T10:37:58;13.80;99.90
11532;DHT22;5822;51.000;5.874;2022-09-30T10:40:27;13.80;99.90
11532;DHT22;5822;51.000;5.874;2022-09-30T10:42:53;13.80;99.90
11532;DHT22;5822;51.000;5.874;2022-09-30T10:45:31;13.90;99.90
11532;DHT22;5822;51.000;5.874;2022-09-30T10:47:59;13.90;99.90
11532;DHT22;5822;51.000;5.874;2022-09-30T10:50:31;13.90;99.90
11532;DHT22;5822;51.000;5.874;2022-09-30T10:53:03;13.90;99.90
11532;DHT22;5822;51.000;5.874;2022-09-30T10:55:42;14.00;99.90
11532;DHT22;5822;51.000;5.874;2022-09-30T11:03:48;13.90;99.90
11532;DHT22;5822;51.000;5.874;2022-09-30T11:06:16;14.00;99.90
11532;DHT22;5822;51.000;5.874;2022-09-30T11:08:54;14.10;99.90
11532;DHT22;5822;51.000;5.874;2022-09-30T11:11:37;14.10;99.90
11532;DHT22;5822;51.000;5.874;2022-09-30T11:14:38;14.10;99.90
11532;DHT22;5822;51.000;5.874;2022-09-30T11:17:22;14.10;99.90
11532;DHT22;5822;51.000;5.874;2022-09-30T11:36:41;14.50;99.90
11532;DHT22;5822;51.000;5.874;2022-09-30T11:39:33;14.50;99.90
11532;DHT22;5822;51.000;5.874;2022-09-30T11:45:30;14.50;99.90
11532;DHT22;5822;51.000;5.874;2022-09-30T11:50:57;14.50;99.90
11532;DHT22;5822;51.000;5.874;2022-09-30T11:56:08;14.50;99.90
11532;DHT22;5822;51.000;5.874;2022-09-30T11:58:48;14.30;99.90
11532;DHT22;5822;51.000;5.874;2022-09-30T12:01:30;14.40;99.90
11532;DHT22;5822;51.000;5.874;2022-09-30T12:04:21;14.40;99.90
11532;DHT22;5822;51.000;5.874;2022-09-30T12:07:05;14.30;99.90
11532;DHT22;5822;51.000;5.874;2022-09-30T12:09:45;14.40;99.90
11532;DHT22;5822;51.000;5.874;2022-09-30T12:12:15;14.40;99.90
11532;DHT22;5822;51.000;5.874;2022-09-30T12:15:02;14.40;99.90
11532;DHT22;5822;51.000;5.874;2022-09-30T12:20:19;14.50;99.90
11532;DHT22;5822;51.000;5.874;2022-09-30T12:22:56;14.50;99.90
11532;DHT22;5822;51.000;5.874;2022-09-30T12:25:31;14.50;99.90
11532;DHT22;5822;51.000;5.874;2022-09-30T12:31:03;14.60;99.90
11532;DHT22;5822;51.000;5.874;2022-09-30T12:33:48;14.60;99.90
11532;DHT22;5822;51.000;5.874;2022-09-30T12:36:30;14.70;99.90
11532;DHT22;5822;51.000;5.874;2022-09-30T12:41:52;14.70;99.90
11532;DHT22;5822;51.000;5.874;2022-09-30T12:49:46;14.70;99.90
11532;DHT22;5822;51.000;5.874;2022-09-30T12:52:22;14.80;99.90
11532;DHT22;5822;51.000;5.874;2022-09-30T12:54:52;15.00;99.90
11532;DHT22;5822;51.000;5.874;2022-09-30T12:57:23;15.00;99.90
11532;DHT22;5822;51.000;5.874;2022-09-30T12:59:53;14.90;99.90
11532;DHT22;5822;51.000;5.874;2022-09-30T13:02:41;14.90;99.90
11532;DHT22;5822;51.000;5.874;2022-09-30T13:13:21;15.00;99.90
11532;DHT22;5822;51.000;5.874;2022-09-30T13:15:51;15.10;99.90
11532;DHT22;5822;51.000;5.874;2022-09-30T13:28:53;15.20;99.90
11532;DHT22;5822;51.000;5.874;2022-09-30T13:31:24;15.30;99.90
11532;DHT22;5822;51.000;5.874;2022-09-30T13:34:09;15.20;99.90
11532;DHT22;5822;51.000;5.874;2022-09-30T13:48:00;15.80;99.90
11532;DHT22;5822;51.000;5.874;2022-09-30T13:50:41;15.90;99.90
11532;DHT22;5822;51.000;5.874;2022-09-30T13:56:35;16.00;99.90
11532;DHT22;5822;51.000;5.874;2022-09-30T14:02:17;16.00;99.90
11532;DHT22;5822;51.000;5.874;2022-09-30T14:08:06;15.80;99.90
11532;DHT22;5822;51.000;5.874;2022-09-30T14:19:52;15.90;99.90
11532;DHT22;5822;51.000;5.874;2022-09-30T14:22:26;16.10;99.90
11532;DHT22;5822;51.000;5.874;2022-09-30T14:24:55;16.00;99.90
11532;DHT22;5822;51.000;5.874;2022-09-30T14:27:53;16.30;99.90
11532;DHT22;5822;51.000;5.874;2022-09-30T14:30:25;16.30;99.90
11532;DHT22;5822;51.000;5.874;2022-09-30T14:32:55;16.70;99.90
11532;DHT22;5822;51.000;5.874;2022-09-30T14:35:25;16.40;99.90
11532;DHT22;5822;51.000;5.874;2022-09-30T14:38:13;16.50;99.90
11532;DHT22;5822;51.000;5.874;2022-09-30T14:40:49;16.50;99.90
11532;DHT22;5822;51.000;5.874;2022-09-30T14:43:18;16.40;99.90
11532;DHT22;5822;51.000;5.874;2022-09-30T14:45:46;16.40;99.90
11532;DHT22;5822;51.000;5.874;2022-09-30T14:48:26;16.30;99.90
11532;DHT22;5822;51.000;5.874;2022-09-30T14:51:13;16.30;99.90
11532;DHT22;5822;51.000;5.874;2022-09-30T14:53:43;16.30;99.90
11532;DHT22;5822;51.000;5.874;2022-09-30T14:56:21;16.40;99.90
11532;DHT22;5822;51.000;5.874;2022-09-30T14:58:50;16.40;99.90
11532;DHT22;5822;51.000;5.874;2022-09-30T15:01:18;16.30;99.90
11532;DHT22;5822;51.000;5.874;2022-09-30T15:04:02;16.40;99.90
11532;DHT22;5822;51.000;5.874;2022-09-30T15:06:31;16.40;99.90
11532;DHT22;5822;51.000;5.874;2022-09-30T15:09:05;16.30;99.90
11532;DHT22;5822;51.000;5.874;2022-09-30T15:11:33;16.30;99.90
11532;DHT22;5822;51.000;5.874;2022-09-30T15:14:06;16.30;99.90
11532;DHT22;5822;51.000;5.874;2022-09-30T15:16:33;16.30;99.90
11532;DHT22;5822;51.000;5.874;2022-09-30T15:18:59;16.30;99.90
11532;DHT22;5822;51.000;5.874;2022-09-30T15:21:27;16.20;99.90
11532;DHT22;5822;51.000;5.874;2022-09-30T15:23:55;16.20;99.90
11532;DHT22;5822;51.000;5.874;2022-09-30T15:26:24;16.20;99.90
11532;DHT22;5822;51.000;5.874;2022-09-30T15:28:50;16.20;99.90
11532;DHT22;5822;51.000;5.874;2022-09-30T15:34:03;16.30;99.90
11532;DHT22;5822;51.000;5.874;2022-09-30T15:36:29;16.20;99.90
11532;DHT22;5822;51.000;5.874;2022-09-30T15:38:55;16.10;99.90
11532;DHT22;5822;51.000;5.874;2022-09-30T15:41:21;16.10;99.90
11532;DHT22;5822;51.000;5.874;2022-09-30T15:43:48;16.20;99.90
11532;DHT22;5822;51.000;5.874;2022-09-30T15:46:19;16.10;99.90
11532;DHT22;5822;51.000;5.874;2022-09-30T15:48:47;16.10;99.90
11532;DHT22;5822;51.000;5.874;2022-09-30T15:53:54;16.00;99.90
11532;DHT22;5822;51.000;5.874;2022-09-30T15:56:25;16.00;99.90
11532;DHT22;5822;51.000;5.874;2022-09-30T16:01:31;16.00;99.90
11532;DHT22;5822;51.000;5.874;2022-09-30T16:04:29;16.00;99.90
11532;DHT22;5822;51.000;5.874;2022-09-30T16:07:04;15.90;99.90
11532;DHT22;5822;51.000;5.874;2022-09-30T16:09:36;15.90;99.90
11532;DHT22;5822;51.000;5.874;2022-09-30T16:17:28;15.90;99.90
11532;DHT22;5822;51.000;5.874;2022-09-30T16:19:58;15.80;99.90
11532;DHT22;5822;51.000;5.874;2022-09-30T16:22:49;15.80;99.90
11532;DHT22;5822;51.000;5.874;2022-09-30T16:25:24;15.80;99.90
11532;DHT22;5822;51.000;5.874;2022-09-30T16:28:16;15.80;99.90
11532;DHT22;5822;51.000;5.874;2022-09-30T16:30:44;15.80;99.90
11532;DHT22;5822;51.000;5.874;2022-09-30T16:33:12;15.80;99.90
11532;DHT22;5822;51.000;5.874;2022-09-30T16:35:40;15.70;99.90
11532;DHT22;5822;51.000;5.874;2022-09-30T16:38:08;15.70;99.90
11532;DHT22;5822;51.000;5.874;2022-09-30T16:40:35;15.80;99.90
11532;DHT22;5822;51.000;5.874;2022-09-30T16:43:02;15.80;99.90
11532;DHT22;5822;51.000;5.874;2022-09-30T16:45:30;15.70;99.90
11532;DHT22;5822;51.000;5.874;2022-09-30T16:47:57;15.70;99.90
11532;DHT22;5822;51.000;5.874;2022-09-30T16:50:39;15.70;99.90
11532;DHT22;5822;51.000;5.874;2022-09-30T16:53:06;15.70;99.90
11532;DHT22;5822;51.000;5.874;2022-09-30T16:55:34;15.70;99.90
11532;DHT22;5822;51.000;5.874;2022-09-30T16:57:59;15.60;99.90
11532;DHT22;5822;51.000;5.874;2022-09-30T17:00:26;15.60;99.90
11532;DHT22;5822;51.000;5.874;2022-09-30T17:02:53;15.60;99.90
11532;DHT22;5822;51.000;5.874;2022-09-30T17:05:20;15.60;99.90
11532;DHT22;5822;51.000;5.874;2022-09-30T17:07:57;15.60;99.90
11532;DHT22;5822;51.000;5.874;2022-09-30T17:10:27;15.50;99.90
11532;DHT22;5822;51.000;5.874;2022-09-30T17:12:54;15.50;99.90
11532;DHT22;5822;51.000;5.874;2022-09-30T17:15:20;15.40;99.90
11532;DHT22;5822;51.000;5.874;2022-09-30T17:17:46;15.50;99.90
11532;DHT22;5822;51.000;5.874;2022-09-30T17:20:12;15.40;99.90
11532;DHT22;5822;51.000;5.874;2022-09-30T17:22:38;15.40;99.90
11532;DHT22;5822;51.000;5.874;2022-09-30T17:25:04;15.40;99.90
11532;DHT22;5822;51.000;5.874;2022-09-30T17:27:30;15.40;99.90
11532;DHT22;5822;51.000;5.874;2022-09-30T17:29:55;15.40;99.90
11532;DHT22;5822;51.000;5.874;2022-09-30T17:32:21;15.40;99.90
11532;DHT22;5822;51.000;5.874;2022-09-30T17:34:47;15.40;99.90
11532;DHT22;5822;51.000;5.874;2022-09-30T17:37:13;15.40;99.90
11532;DHT22;5822;51.000;5.874;2022-09-30T17:39:39;15.30;99.90
11532;DHT22;5822;51.000;5.874;2022-09-30T17:42:05;15.30;99.90
11532;DHT22;5822;51.000;5.874;2022-09-30T17:44:49;15.30;99.90
11532;DHT22;5822;51.000;5.874;2022-09-30T17:47:16;15.30;99.90
11532;DHT22;5822;51.000;5.874;2022-09-30T17:49:42;15.30;99.90
11532;DHT22;5822;51.000;5.874;2022-09-30T17:52:07;15.20;99.90
11532;DHT22;5822;51.000;5.874;2022-09-30T17:54:33;15.20;99.90
11532;DHT22;5822;51.000;5.874;2022-09-30T17:57:00;15.20;99.90
11532;DHT22;5822;51.000;5.874;2022-09-30T17:59:25;15.20;99.90
11532;DHT22;5822;51.000;5.874;2022-09-30T18:01:53;15.10;99.90
11532;DHT22;5822;51.000;5.874;2022-09-30T18:04:20;15.00;99.90
11532;DHT22;5822;51.000;5.874;2022-09-30T18:06:46;15.10;99.90
11532;DHT22;5822;51.000;5.874;2022-09-30T18:09:12;15.00;99.90
11532;DHT22;5822;51.000;5.874;2022-09-30T18:11:39;15.00;99.90
11532;DHT22;5822;51.000;5.874;2022-09-30T18:14:04;15.00;99.90
11532;DHT22;5822;51.000;5.874;2022-09-30T18:16:31;15.00;99.90
11532;DHT22;5822;51.000;5.874;2022-09-30T18:19:00;15.00;99.90
11532;DHT22;5822;51.000;5.874;2022-09-30T18:21:26;14.90;99.90
11532;DHT22;5822;51.000;5.874;2022-09-30T18:23:53;14.90;99.90
11532;DHT22;5822;51.000;5.874;2022-09-30T18:26:22;15.00;99.90
11532;DHT22;5822;51.000;5.874;2022-09-30T18:28:49;15.00;99.90
11532;DHT22;5822;51.000;5.874;2022-09-30T18:31:17;14.90;99.90
11532;DHT22;5822;51.000;5.874;2022-09-30T18:33:55;15.00;99.90
11532;DHT22;5822;51.000;5.874;2022-09-30T18:36:25;14.80;99.90
11532;DHT22;5822;51.000;5.874;2022-09-30T18:38:53;14.80;99.90
11532;DHT22;5822;51.000;5.874;2022-09-30T18:41:23;14.90;99.90
11532;DHT22;5822;51.000;5.874;2022-09-30T18:43:50;14.70;99.90
11532;DHT22;5822;51.000;5.874;2022-09-30T18:46:16;14.70;99.90
11532;DHT22;5822;51.000;5.874;2022-09-30T18:48:47;14.60;99.90
11532;DHT22;5822;51.000;5.874;2022-09-30T18:51:14;14.60;99.90
11532;DHT22;5822;51.000;5.874;2022-09-30T18:53:42;14.60;99.90
11532;DHT22;5822;51.000;5.874;2022-09-30T18:56:09;14.50;99.90
11532;DHT22;5822;51.000;5.874;2022-09-30T18:58:34;14.50;99.90
11532;DHT22;5822;51.000;5.874;2022-09-30T19:01:01;14.60;99.90
11532;DHT22;5822;51.000;5.874;2022-09-30T19:03:31;14.50;99.90
11532;DHT22;5822;51.000;5.874;2022-09-30T19:05:57;14.50;99.90
11532;DHT22;5822;51.000;5.874;2022-09-30T19:08:24;14.50;99.90
11532;DHT22;5822;51.000;5.874;2022-09-30T19:10:50;14.50;99.90
11532;DHT22;5822;51.000;5.874;2022-09-30T19:13:16;14.40;99.90
11532;DHT22;5822;51.000;5.874;2022-09-30T19:15:42;14.40;99.90